createdAt,value
2018-06-13T00:00:26.331Z,15.15
2018-06-13T00:01:26.352Z,15.15
2018-06-13T00:02:26.376Z,15.16
2018-06-13T00:03:26.407Z,15.22
2018-06-13T00:04:26.428Z,15.15
2018-06-13T00:05:26.454Z,15.13
2018-06-13T00:06:26.475Z,15.09
2018-06-13T00:07:26.506Z,15.07
2018-06-13T00:08:26.528Z,15.09
2018-06-13T00:09:26.550Z,15.15
2018-06-13T00:10:26.581Z,15.11
2018-06-13T00:11:26.608Z,15.25
2018-06-13T00:12:26.624Z,15.19
2018-06-13T00:13:26.651Z,15.27
2018-06-13T00:14:26.675Z,15.16
2018-06-13T00:15:26.703Z,15.27
2018-06-13T00:16:26.723Z,15.16
2018-06-13T00:17:26.749Z,15.09
2018-06-13T00:18:26.774Z,15.18
2018-06-13T00:19:26.798Z,15.11
2018-06-13T00:20:26.827Z,15.04
2018-06-13T00:21:26.852Z,14.95
2018-06-13T00:22:26.873Z,14.95
2018-06-13T00:23:26.898Z,14.95
2018-06-13T00:24:26.923Z,14.95
2018-06-13T00:25:26.953Z,14.87
2018-06-13T00:26:26.973Z,14.79
2018-06-13T00:27:27.000Z,14.74
2018-06-13T00:28:27.026Z,14.72
2018-06-13T00:29:27.043Z,14.78
2018-06-13T00:30:27.073Z,14.79
2018-06-13T00:31:27.092Z,14.56
2018-06-13T00:32:27.157Z,14.64
2018-06-13T00:33:27.143Z,14.72
2018-06-13T00:34:27.174Z,14.57
2018-06-13T00:35:27.197Z,14.66
2018-06-13T00:36:27.218Z,14.66
2018-06-13T00:37:27.243Z,14.57
2018-06-13T00:38:27.268Z,14.53
2018-06-13T00:39:27.294Z,14.52
2018-06-13T00:40:27.317Z,14.60
2018-06-13T00:41:27.336Z,14.60
2018-06-13T00:42:27.366Z,14.57
2018-06-13T00:43:27.387Z,14.38
2018-06-13T00:44:27.412Z,14.36
2018-06-13T00:45:27.440Z,14.42
2018-06-13T00:46:27.464Z,14.34
2018-06-13T00:47:27.491Z,14.29
2018-06-13T00:48:27.517Z,14.36
2018-06-13T00:49:27.531Z,14.29
2018-06-13T00:50:27.638Z,14.26
2018-06-13T00:51:27.581Z,14.24
2018-06-13T00:52:27.606Z,14.24
2018-06-13T00:53:27.632Z,14.26
2018-06-13T00:54:27.657Z,14.29
2018-06-13T00:55:27.689Z,14.29
2018-06-13T00:56:27.705Z,14.30
2018-06-13T00:57:27.736Z,14.30
2018-06-13T00:58:27.752Z,14.36
2018-06-13T00:59:27.777Z,14.29
2018-06-13T01:00:27.831Z,14.38
2018-06-13T01:01:27.826Z,14.30
2018-06-13T01:02:27.849Z,14.29
2018-06-13T01:03:27.872Z,14.35
2018-06-13T01:04:27.901Z,14.39
2018-06-13T01:05:27.919Z,14.41
2018-06-13T01:06:27.945Z,14.44
2018-06-13T01:07:27.972Z,14.49
2018-06-13T01:08:27.997Z,14.49
2018-06-13T01:09:28.022Z,14.56
2018-06-13T01:10:28.045Z,14.54
2018-06-13T01:11:28.069Z,14.59
2018-06-13T01:12:28.094Z,14.59
2018-06-13T01:13:28.115Z,14.57
2018-06-13T01:14:28.146Z,14.63
2018-06-13T01:15:28.166Z,14.64
2018-06-13T01:16:28.198Z,14.66
2018-06-13T01:17:28.213Z,14.67
2018-06-13T01:18:28.234Z,14.72
2018-06-13T01:19:28.260Z,14.67
2018-06-13T01:20:28.287Z,14.53
2018-06-13T01:21:28.312Z,14.59
2018-06-13T01:22:28.332Z,14.54
2018-06-13T01:23:28.361Z,14.48
2018-06-13T01:24:28.380Z,14.46
2018-06-13T01:25:28.406Z,14.46
2018-06-13T01:26:28.432Z,14.52
2018-06-13T01:27:28.455Z,14.49
2018-06-13T01:28:28.485Z,14.42
2018-06-13T01:29:28.510Z,14.52
2018-06-13T01:30:28.531Z,14.38
2018-06-13T01:31:28.556Z,14.42
2018-06-13T01:32:28.584Z,14.44
2018-06-13T01:33:28.601Z,14.49
2018-06-13T01:34:28.631Z,14.44
2018-06-13T01:35:28.653Z,14.49
2018-06-13T01:36:28.669Z,14.57
2018-06-13T01:37:28.694Z,14.53
2018-06-13T01:38:28.723Z,14.56
2018-06-13T01:39:28.757Z,14.53
2018-06-13T01:40:28.769Z,14.49
2018-06-13T01:41:28.796Z,14.54
2018-06-13T01:42:28.819Z,14.54
2018-06-13T01:43:28.840Z,14.49
2018-06-13T01:44:28.868Z,14.52
2018-06-13T01:45:28.889Z,14.56
2018-06-13T01:46:28.913Z,14.64
2018-06-13T01:47:28.939Z,14.69
2018-06-13T01:48:28.960Z,14.79
2018-06-13T01:49:28.989Z,14.72
2018-06-13T01:50:29.014Z,14.85
2018-06-13T01:51:29.039Z,14.67
2018-06-13T01:52:29.064Z,14.57
2018-06-13T01:53:29.083Z,14.61
2018-06-13T01:54:29.109Z,14.60
2018-06-13T01:55:29.138Z,14.60
2018-06-13T01:56:29.161Z,14.61
2018-06-13T01:57:29.185Z,14.60
2018-06-13T01:58:29.204Z,14.53
2018-06-13T01:59:29.233Z,14.66
2018-06-13T02:00:29.253Z,14.64
2018-06-13T02:01:29.282Z,14.78
2018-06-13T02:02:29.303Z,14.75
2018-06-13T02:03:29.329Z,14.85
2018-06-13T02:04:29.353Z,14.79
2018-06-13T02:05:29.379Z,14.74
2018-06-13T02:06:29.403Z,14.79
2018-06-13T02:07:29.433Z,14.78
2018-06-13T02:08:29.449Z,14.83
2018-06-13T02:09:29.478Z,14.80
2018-06-13T02:10:29.501Z,14.67
2018-06-13T02:11:29.523Z,14.67
2018-06-13T02:12:29.548Z,14.66
2018-06-13T02:13:29.569Z,14.72
2018-06-13T02:14:29.593Z,14.71
2018-06-13T02:15:29.629Z,14.71
2018-06-13T02:16:29.648Z,14.79
2018-06-13T02:17:29.671Z,14.79
2018-06-13T02:18:29.705Z,14.75
2018-06-13T02:19:29.718Z,14.79
2018-06-13T02:20:29.739Z,14.79
2018-06-13T02:21:29.767Z,14.86
2018-06-13T02:22:29.792Z,14.85
2018-06-13T02:23:29.822Z,14.83
2018-06-13T02:24:29.841Z,14.74
2018-06-13T02:25:29.861Z,14.72
2018-06-13T02:26:29.888Z,14.78
2018-06-13T02:27:29.913Z,14.80
2018-06-13T02:28:29.938Z,14.79
2018-06-13T02:29:29.962Z,14.72
2018-06-13T02:30:29.986Z,14.75
2018-06-13T02:31:30.017Z,14.72
2018-06-13T02:32:30.031Z,14.87
2018-06-13T02:33:30.067Z,14.78
2018-06-13T02:34:30.085Z,14.83
2018-06-13T02:35:30.107Z,14.75
2018-06-13T02:36:30.133Z,14.82
2018-06-13T02:37:30.158Z,14.83
2018-06-13T02:38:30.182Z,14.75
2018-06-13T02:39:30.207Z,14.80
2018-06-13T02:40:30.231Z,14.94
2018-06-13T02:41:30.256Z,14.91
2018-06-13T02:42:30.276Z,14.97
2018-06-13T02:43:30.303Z,14.95
2018-06-13T02:44:30.329Z,14.79
2018-06-13T02:45:30.355Z,14.82
2018-06-13T02:46:30.376Z,14.80
2018-06-13T02:47:30.400Z,14.78
2018-06-13T02:48:30.421Z,14.66
2018-06-13T02:49:30.451Z,14.69
2018-06-13T02:50:30.471Z,14.78
2018-06-13T02:51:30.502Z,14.61
2018-06-13T02:52:30.529Z,14.79
2018-06-13T02:53:30.553Z,14.80
2018-06-13T02:54:30.572Z,14.75
2018-06-13T02:55:30.596Z,14.87
2018-06-13T02:56:30.623Z,14.86
2018-06-13T02:57:30.642Z,14.97
2018-06-13T02:58:30.667Z,14.79
2018-06-13T02:59:30.691Z,14.82
2018-06-13T03:00:30.756Z,14.79
2018-06-13T03:01:30.743Z,14.80
2018-06-13T03:02:30.766Z,14.87
2018-06-13T03:03:30.790Z,14.80
2018-06-13T03:04:30.815Z,14.86
2018-06-13T03:05:30.837Z,14.83
2018-06-13T03:06:30.860Z,14.78
2018-06-13T03:07:30.886Z,14.97
2018-06-13T03:08:30.914Z,14.94
2018-06-13T03:09:30.936Z,14.91
2018-06-13T03:10:30.972Z,14.87
2018-06-13T03:11:30.987Z,14.79
2018-06-13T03:12:31.009Z,14.75
2018-06-13T03:13:31.040Z,14.80
2018-06-13T03:14:31.056Z,14.80
2018-06-13T03:15:31.080Z,14.83
2018-06-13T03:16:31.115Z,14.79
2018-06-13T03:17:31.134Z,14.90
2018-06-13T03:18:31.155Z,14.95
2018-06-13T03:19:31.183Z,14.94
2018-06-13T03:20:31.205Z,14.94
2018-06-13T03:21:31.231Z,14.90
2018-06-13T03:22:31.259Z,14.87
2018-06-13T03:23:31.276Z,14.95
2018-06-13T03:24:31.299Z,14.91
2018-06-13T03:25:31.325Z,14.94
2018-06-13T03:26:31.351Z,14.97
2018-06-13T03:27:31.378Z,14.93
2018-06-13T03:28:31.398Z,14.90
2018-06-13T03:29:31.428Z,14.85
2018-06-13T03:30:31.449Z,14.78
2018-06-13T03:31:31.475Z,14.74
2018-06-13T03:32:31.494Z,14.75
2018-06-13T03:33:31.522Z,14.82
2018-06-13T03:34:31.552Z,14.80
2018-06-13T03:35:31.570Z,14.87
2018-06-13T03:36:31.595Z,14.85
2018-06-13T03:37:31.616Z,14.93
2018-06-13T03:38:31.644Z,14.86
2018-06-13T03:39:31.668Z,14.86
2018-06-13T03:40:31.699Z,14.91
2018-06-13T03:41:31.717Z,14.85
2018-06-13T03:42:31.735Z,14.82
2018-06-13T03:43:31.765Z,14.72
2018-06-13T03:44:31.789Z,14.83
2018-06-13T03:45:31.810Z,14.93
2018-06-13T03:46:31.839Z,14.94
2018-06-13T03:47:31.858Z,14.94
2018-06-13T03:48:31.888Z,14.97
2018-06-13T03:49:31.909Z,14.95
2018-06-13T03:50:31.935Z,14.94
2018-06-13T03:51:31.960Z,14.94
2018-06-13T03:52:31.981Z,15.03
2018-06-13T03:53:32.009Z,15.04
2018-06-13T03:54:32.029Z,15.04
2018-06-13T03:55:32.053Z,15.20
2018-06-13T03:56:32.079Z,15.16
2018-06-13T03:57:32.104Z,15.03
2018-06-13T03:58:32.129Z,15.11
2018-06-13T03:59:32.154Z,15.12
2018-06-13T04:00:32.183Z,15.15
2018-06-13T04:01:32.208Z,15.03
2018-06-13T04:02:32.227Z,15.09
2018-06-13T04:03:32.269Z,15.04
2018-06-13T04:04:32.280Z,15.12
2018-06-13T04:05:32.299Z,15.16
2018-06-13T04:06:32.385Z,15.25
2018-06-13T04:07:32.352Z,15.22
2018-06-13T04:08:32.378Z,15.15
2018-06-13T04:09:32.401Z,15.25
2018-06-13T04:10:32.428Z,15.30
2018-06-13T04:11:32.447Z,15.28
2018-06-13T04:12:32.473Z,15.28
2018-06-13T04:13:32.503Z,15.33
2018-06-13T04:14:32.520Z,15.31
2018-06-13T04:15:32.548Z,15.31
2018-06-13T04:16:32.570Z,15.37
2018-06-13T04:17:32.594Z,15.44
2018-06-13T04:18:32.624Z,15.46
2018-06-13T04:19:32.657Z,15.51
2018-06-13T04:20:32.667Z,15.52
2018-06-13T04:21:32.693Z,15.58
2018-06-13T04:22:32.722Z,15.55
2018-06-13T04:23:32.743Z,15.53
2018-06-13T04:24:32.772Z,15.59
2018-06-13T04:25:32.791Z,15.71
2018-06-13T04:26:32.827Z,15.71
2018-06-13T04:27:32.843Z,15.66
2018-06-13T04:28:32.871Z,15.62
2018-06-13T04:29:32.887Z,15.58
2018-06-13T04:30:32.916Z,15.56
2018-06-13T04:31:32.941Z,15.51
2018-06-13T04:32:33.003Z,15.51
2018-06-13T04:33:32.996Z,15.67
2018-06-13T04:34:33.020Z,15.68
2018-06-13T04:35:33.042Z,15.68
2018-06-13T04:36:33.063Z,15.76
2018-06-13T04:37:33.086Z,15.68
2018-06-13T04:38:33.117Z,15.67
2018-06-13T04:39:33.138Z,15.68
2018-06-13T04:40:33.165Z,15.73
2018-06-13T04:41:33.191Z,15.66
2018-06-13T04:42:33.220Z,15.55
2018-06-13T04:43:33.247Z,15.55
2018-06-13T04:44:33.264Z,15.59
2018-06-13T04:45:33.287Z,15.51
2018-06-13T04:46:33.312Z,15.44
2018-06-13T04:47:33.343Z,15.44
2018-06-13T04:48:33.362Z,15.43
2018-06-13T04:49:33.388Z,15.43
2018-06-13T04:50:33.415Z,15.46
2018-06-13T04:51:33.437Z,15.62
2018-06-13T04:52:33.460Z,15.66
2018-06-13T04:53:33.488Z,15.66
2018-06-13T04:54:33.518Z,15.66
2018-06-13T04:55:33.536Z,15.59
2018-06-13T04:56:33.560Z,15.68
2018-06-13T04:57:33.595Z,15.62
2018-06-13T04:58:33.612Z,15.70
2018-06-13T04:59:33.636Z,15.60
2018-06-13T05:00:33.666Z,15.60
2018-06-13T05:01:33.690Z,15.60
2018-06-13T05:02:33.715Z,15.66
2018-06-13T05:03:33.735Z,15.68
2018-06-13T05:04:33.761Z,15.73
2018-06-13T05:05:33.789Z,15.73
2018-06-13T05:06:33.809Z,15.71
2018-06-13T05:07:33.839Z,15.78
2018-06-13T05:08:33.862Z,15.81
2018-06-13T05:09:33.889Z,15.81
2018-06-13T05:10:33.912Z,15.85
2018-06-13T05:11:33.931Z,15.80
2018-06-13T05:12:33.958Z,15.93
2018-06-13T05:13:33.993Z,15.93
2018-06-13T05:14:34.012Z,16.06
2018-06-13T05:15:34.031Z,16.06
2018-06-13T05:16:34.057Z,16.07
2018-06-13T05:17:34.081Z,16.10
2018-06-13T05:18:34.108Z,16.06
2018-06-13T05:19:34.139Z,16.11
2018-06-13T05:20:34.156Z,16.14
2018-06-13T05:21:34.180Z,16.01
2018-06-13T05:22:34.215Z,16.17
2018-06-13T05:23:34.240Z,16.14
2018-06-13T05:24:34.255Z,16.29
2018-06-13T05:25:34.286Z,16.27
2018-06-13T05:26:34.304Z,16.37
2018-06-13T05:27:34.335Z,16.33
2018-06-13T05:28:34.397Z,16.55
2018-06-13T05:29:34.384Z,16.51
2018-06-13T05:30:34.405Z,16.50
2018-06-13T05:31:34.436Z,16.59
2018-06-13T05:32:34.460Z,16.63
2018-06-13T05:33:34.484Z,16.73
2018-06-13T05:34:34.515Z,16.66
2018-06-13T05:35:34.540Z,16.63
2018-06-13T05:36:34.560Z,16.70
2018-06-13T05:37:34.587Z,16.69
2018-06-13T05:38:34.614Z,16.84
2018-06-13T05:39:34.635Z,16.90
2018-06-13T05:40:34.664Z,16.82
2018-06-13T05:41:34.694Z,16.75
2018-06-13T05:42:34.723Z,16.85
2018-06-13T05:43:34.734Z,16.88
2018-06-13T05:44:34.759Z,16.92
2018-06-13T05:45:34.783Z,16.87
2018-06-13T05:46:34.813Z,16.95
2018-06-13T05:47:34.858Z,16.99
2018-06-13T05:48:34.869Z,17.10
2018-06-13T05:49:34.893Z,17.07
2018-06-13T05:50:34.914Z,17.14
2018-06-13T05:51:34.947Z,17.05
2018-06-13T05:52:34.974Z,17.03
2018-06-13T05:53:34.993Z,17.03
2018-06-13T05:54:35.019Z,17.05
2018-06-13T05:55:35.043Z,16.99
2018-06-13T05:56:35.069Z,16.88
2018-06-13T05:57:35.100Z,16.95
2018-06-13T05:58:35.123Z,16.87
2018-06-13T05:59:35.151Z,16.91
2018-06-13T06:00:35.178Z,16.95
2018-06-13T06:01:35.198Z,16.88
2018-06-13T06:02:35.223Z,16.88
2018-06-13T06:03:35.253Z,17.00
2018-06-13T06:04:35.277Z,17.02
2018-06-13T06:05:35.310Z,17.09
2018-06-13T06:06:35.330Z,17.07
2018-06-13T06:07:35.356Z,17.12
2018-06-13T06:08:35.381Z,17.22
2018-06-13T06:09:35.405Z,17.33
2018-06-13T06:10:35.460Z,17.39
2018-06-13T06:11:35.461Z,17.49
2018-06-13T06:12:35.483Z,17.53
2018-06-13T06:13:35.520Z,17.46
2018-06-13T06:14:35.538Z,17.54
2018-06-13T06:15:35.564Z,17.54
2018-06-13T06:16:35.588Z,17.46
2018-06-13T06:17:35.614Z,17.49
2018-06-13T06:18:35.646Z,17.35
2018-06-13T06:19:35.667Z,17.22
2018-06-13T06:20:35.703Z,17.17
2018-06-13T06:21:35.721Z,17.12
2018-06-13T06:22:35.746Z,17.09
2018-06-13T06:23:35.819Z,17.14
2018-06-13T06:24:35.803Z,17.20
2018-06-13T06:25:35.830Z,17.24
2018-06-13T06:26:35.850Z,17.35
2018-06-13T06:27:35.872Z,17.43
2018-06-13T06:28:35.904Z,17.51
2018-06-13T06:29:35.931Z,17.49
2018-06-13T06:30:35.950Z,17.39
2018-06-13T06:31:35.978Z,17.38
2018-06-13T06:32:36.003Z,17.47
2018-06-13T06:33:36.037Z,17.46
2018-06-13T06:34:36.057Z,17.53
2018-06-13T06:35:36.086Z,17.66
2018-06-13T06:36:36.108Z,17.51
2018-06-13T06:37:36.132Z,17.46
2018-06-13T06:38:36.162Z,17.27
2018-06-13T06:39:36.186Z,17.30
2018-06-13T06:40:36.214Z,17.24
2018-06-13T06:41:36.237Z,17.21
2018-06-13T06:42:36.272Z,17.20
2018-06-13T06:43:36.292Z,17.15
2018-06-13T06:44:36.317Z,17.14
2018-06-13T06:45:36.343Z,17.12
2018-06-13T06:46:36.377Z,17.09
2018-06-13T06:47:36.398Z,17.25
2018-06-13T06:48:36.424Z,17.32
2018-06-13T06:49:36.458Z,17.32
2018-06-13T06:50:36.478Z,17.36
2018-06-13T06:51:36.502Z,17.35
2018-06-13T06:52:36.530Z,17.38
2018-06-13T06:53:36.558Z,17.46
2018-06-13T06:54:36.577Z,17.40
2018-06-13T06:55:36.697Z,17.49
2018-06-13T06:56:36.633Z,17.33
2018-06-13T06:57:36.658Z,17.39
2018-06-13T06:58:36.689Z,17.43
2018-06-13T06:59:36.707Z,17.63
2018-06-13T07:00:36.737Z,17.79
2018-06-13T07:01:36.761Z,17.89
2018-06-13T07:02:36.845Z,17.96
2018-06-13T07:03:36.820Z,18.09
2018-06-13T07:04:36.841Z,17.94
2018-06-13T07:05:36.868Z,18.02
2018-06-13T07:06:36.891Z,17.99
2018-06-13T07:07:36.921Z,17.98
2018-06-13T07:08:36.947Z,18.05
2018-06-13T07:09:36.973Z,18.04
2018-06-13T07:10:37.009Z,17.96
2018-06-13T07:11:37.023Z,17.98
2018-06-13T07:12:37.054Z,17.95
2018-06-13T07:13:37.079Z,17.96
2018-06-13T07:14:37.101Z,17.99
2018-06-13T07:15:37.126Z,17.98
2018-06-13T07:16:37.159Z,18.02
2018-06-13T07:17:37.185Z,17.99
2018-06-13T07:18:37.207Z,18.05
2018-06-13T07:19:37.240Z,18.04
2018-06-13T07:20:37.265Z,18.04
2018-06-13T07:21:37.287Z,17.95
2018-06-13T07:22:37.321Z,17.92
2018-06-13T07:23:37.341Z,18.04
2018-06-13T07:24:37.390Z,17.99
2018-06-13T07:25:37.395Z,17.84
2018-06-13T07:26:37.421Z,17.83
2018-06-13T07:27:37.445Z,17.86
2018-06-13T07:28:37.472Z,18.01
2018-06-13T07:29:37.496Z,18.17
2018-06-13T07:30:37.526Z,18.21
2018-06-13T07:31:37.550Z,18.32
2018-06-13T07:32:37.581Z,18.49
2018-06-13T07:33:37.643Z,18.51
2018-06-13T07:34:37.630Z,18.60
2018-06-13T07:35:37.661Z,18.64
2018-06-13T07:36:37.686Z,18.47
2018-06-13T07:37:37.710Z,18.47
2018-06-13T07:38:37.739Z,18.60
2018-06-13T07:39:37.768Z,18.49
2018-06-13T07:40:37.791Z,18.44
2018-06-13T07:41:37.823Z,18.35
2018-06-13T07:42:37.847Z,18.39
2018-06-13T07:43:37.874Z,18.39
2018-06-13T07:44:37.896Z,18.36
2018-06-13T07:45:37.927Z,18.41
2018-06-13T07:46:37.961Z,18.36
2018-06-13T07:47:37.986Z,18.31
2018-06-13T07:48:38.000Z,18.38
2018-06-13T07:49:38.034Z,18.34
2018-06-13T07:50:38.056Z,18.50
2018-06-13T07:51:38.091Z,18.53
2018-06-13T07:52:38.119Z,18.65
2018-06-13T07:53:38.142Z,18.65
2018-06-13T07:54:38.166Z,18.75
2018-06-13T07:55:38.190Z,18.87
2018-06-13T07:56:38.220Z,18.93
2018-06-13T07:57:38.245Z,18.87
2018-06-13T07:58:38.271Z,18.89
2018-06-13T07:59:38.302Z,18.87
2018-06-13T08:00:38.327Z,18.72
2018-06-13T08:01:38.358Z,18.84
2018-06-13T08:02:38.379Z,18.87
2018-06-13T08:03:38.404Z,18.93
2018-06-13T08:04:38.435Z,18.84
2018-06-13T08:05:38.459Z,19.10
2018-06-13T08:06:38.491Z,19.25
2018-06-13T08:07:38.518Z,19.39
2018-06-13T08:08:38.718Z,19.24
2018-06-13T08:09:38.573Z,19.38
2018-06-13T08:10:38.603Z,19.25
2018-06-13T08:11:38.624Z,19.13
2018-06-13T08:12:38.652Z,19.07
2018-06-13T08:13:38.720Z,18.91
2018-06-13T08:14:38.707Z,18.94
2018-06-13T08:15:38.738Z,18.97
2018-06-13T08:16:38.758Z,19.09
2018-06-13T08:17:38.786Z,19.15
2018-06-13T08:18:38.816Z,19.21
2018-06-13T08:19:38.838Z,19.12
2018-06-13T08:20:38.864Z,19.09
2018-06-13T08:21:38.899Z,19.12
2018-06-13T08:22:38.923Z,19.20
2018-06-13T08:23:38.954Z,18.97
2018-06-13T08:24:38.977Z,19.15
2018-06-13T08:25:39.003Z,19.16
2018-06-13T08:26:39.030Z,19.27
2018-06-13T08:27:39.061Z,19.30
2018-06-13T08:28:39.085Z,19.24
2018-06-13T08:29:39.108Z,19.10
2018-06-13T08:30:39.139Z,19.20
2018-06-13T08:31:39.163Z,19.47
2018-06-13T08:32:39.192Z,19.57
2018-06-13T08:33:39.229Z,19.57
2018-06-13T08:34:39.251Z,19.58
2018-06-13T08:35:39.278Z,19.55
2018-06-13T08:36:39.304Z,19.42
2018-06-13T08:37:39.330Z,19.43
2018-06-13T08:38:39.357Z,19.40
2018-06-13T08:39:39.387Z,19.17
2018-06-13T08:40:39.418Z,18.93
2018-06-13T08:41:39.451Z,18.76
2018-06-13T08:42:39.467Z,18.78
2018-06-13T08:43:39.492Z,18.71
2018-06-13T08:44:39.517Z,18.47
2018-06-13T08:45:39.547Z,18.59
2018-06-13T08:46:39.576Z,18.51
2018-06-13T08:47:39.605Z,18.64
2018-06-13T08:48:39.668Z,18.65
2018-06-13T08:49:39.670Z,18.75
2018-06-13T08:50:39.682Z,18.82
2018-06-13T08:51:39.710Z,18.97
2018-06-13T08:52:39.737Z,19.28
2018-06-13T08:53:39.765Z,19.45
2018-06-13T08:54:39.792Z,19.65
2018-06-13T08:55:39.833Z,19.68
2018-06-13T08:56:39.850Z,19.64
2018-06-13T08:57:39.871Z,19.50
2018-06-13T08:58:39.902Z,19.49
2018-06-13T08:59:39.937Z,19.39
2018-06-13T09:00:39.956Z,19.47
2018-06-13T09:01:39.985Z,19.53
2018-06-13T09:02:40.013Z,19.75
2018-06-13T09:03:40.037Z,19.83
2018-06-13T09:04:40.061Z,20.07
2018-06-13T09:05:40.090Z,20.16
2018-06-13T09:06:40.116Z,19.71
2018-06-13T09:07:40.146Z,19.57
2018-06-13T09:08:40.173Z,19.12
2018-06-13T09:09:40.206Z,18.87
2018-06-13T09:10:40.227Z,18.99
2018-06-13T09:11:40.256Z,19.17
2018-06-13T09:12:40.297Z,19.32
2018-06-13T09:13:40.325Z,19.31
2018-06-13T09:14:40.339Z,19.20
2018-06-13T09:15:40.366Z,19.20
2018-06-13T09:16:40.394Z,19.12
2018-06-13T09:17:40.422Z,18.94
2018-06-13T09:18:40.446Z,18.93
2018-06-13T09:19:40.474Z,19.05
2018-06-13T09:20:40.504Z,19.12
2018-06-13T09:21:40.533Z,19.38
2018-06-13T09:22:40.559Z,19.68
2018-06-13T09:23:40.586Z,19.72
2018-06-13T09:24:40.610Z,19.76
2018-06-13T09:25:40.641Z,19.87
2018-06-13T09:26:40.672Z,19.86
2018-06-13T09:27:40.700Z,19.86
2018-06-13T09:28:40.725Z,19.72
2018-06-13T09:29:40.753Z,19.75
2018-06-13T09:30:40.778Z,19.89
2018-06-13T09:31:40.805Z,19.94
2018-06-13T09:32:40.830Z,19.85
2018-06-13T09:33:40.857Z,20.02
2018-06-13T09:34:40.890Z,19.82
2018-06-13T09:35:40.911Z,19.76
2018-06-13T09:36:40.955Z,19.76
2018-06-13T09:37:41.078Z,19.83
2018-06-13T09:38:40.995Z,19.79
2018-06-13T09:39:41.025Z,19.89
2018-06-13T09:40:41.053Z,19.78
2018-06-13T09:41:41.075Z,19.87
2018-06-13T09:42:41.104Z,19.92
2018-06-13T09:43:41.131Z,19.80
2018-06-13T09:44:41.160Z,19.85
2018-06-13T09:45:41.195Z,20.10
2018-06-13T09:46:48.916Z,20.12
2018-06-13T09:47:41.240Z,20.40
2018-06-13T09:48:41.285Z,20.42
2018-06-13T09:49:41.296Z,20.40
2018-06-13T09:50:41.329Z,20.44
2018-06-13T09:51:41.356Z,20.50
2018-06-13T09:52:41.384Z,20.44
2018-06-13T09:53:41.406Z,20.50
2018-06-13T09:54:41.442Z,20.46
2018-06-13T09:55:41.467Z,20.48
2018-06-13T09:56:41.526Z,20.76
2018-06-13T09:57:41.521Z,20.94
2018-06-13T09:58:41.544Z,20.76
2018-06-13T09:59:41.575Z,20.90
2018-06-13T10:00:41.602Z,20.88
2018-06-13T10:01:41.683Z,20.96
2018-06-13T10:02:41.658Z,20.94
2018-06-13T10:03:41.692Z,20.72
2018-06-13T10:04:41.740Z,20.76
2018-06-13T10:05:41.740Z,20.68
2018-06-13T10:06:41.777Z,20.75
2018-06-13T10:07:41.799Z,20.61
2018-06-13T10:08:41.868Z,20.61
2018-06-13T10:09:41.853Z,20.69
2018-06-13T10:10:41.885Z,20.71
2018-06-13T10:11:41.914Z,20.48
2018-06-13T10:12:41.943Z,20.73
2018-06-13T10:13:41.971Z,20.73
2018-06-13T10:14:42.008Z,20.68
2018-06-13T10:15:42.028Z,20.40
2018-06-13T10:16:42.049Z,20.15
2018-06-13T10:17:42.093Z,20.13
2018-06-13T10:18:42.133Z,20.02
2018-06-13T10:19:42.137Z,20.00
2018-06-13T10:20:42.167Z,19.87
2018-06-13T10:21:42.192Z,19.78
2018-06-13T10:22:42.221Z,19.70
2018-06-13T10:23:42.249Z,19.79
2018-06-13T10:24:42.273Z,19.67
2018-06-13T10:25:42.312Z,19.78
2018-06-13T10:26:42.337Z,19.78
2018-06-13T10:27:42.357Z,19.67
2018-06-13T10:28:42.383Z,19.65
2018-06-13T10:29:42.412Z,19.85
2018-06-13T10:30:42.441Z,19.82
2018-06-13T10:31:42.471Z,19.83
2018-06-13T10:32:42.493Z,19.70
2018-06-13T10:33:42.531Z,19.64
2018-06-13T10:34:42.554Z,19.72
2018-06-13T10:35:42.581Z,19.76
2018-06-13T10:36:42.610Z,19.76
2018-06-13T10:37:42.631Z,19.79
2018-06-13T10:38:42.664Z,19.72
2018-06-13T10:39:42.692Z,19.75
2018-06-13T10:40:42.718Z,19.92
2018-06-13T10:41:42.744Z,20.10
2018-06-13T10:42:42.769Z,20.12
2018-06-13T10:43:42.799Z,20.20
2018-06-13T10:44:42.831Z,20.33
2018-06-13T10:45:42.863Z,20.20
2018-06-13T10:46:42.892Z,19.97
2018-06-13T10:47:42.913Z,19.94
2018-06-13T10:48:42.940Z,19.94
2018-06-13T10:49:42.967Z,19.83
2018-06-13T10:50:42.997Z,20.07
2018-06-13T10:51:43.023Z,20.17
2018-06-13T10:52:43.050Z,20.48
2018-06-13T10:53:43.076Z,20.94
2018-06-13T10:54:43.103Z,21.08
2018-06-13T10:55:43.132Z,21.18
2018-06-13T10:56:43.167Z,20.97
2018-06-13T10:57:43.199Z,20.69
2018-06-13T10:58:43.222Z,20.23
2018-06-13T10:59:43.241Z,20.05
2018-06-13T11:00:43.267Z,19.95
2018-06-13T11:01:43.306Z,19.86
2018-06-13T11:02:43.329Z,19.79
2018-06-13T11:03:43.357Z,19.53
2018-06-13T11:04:43.441Z,19.46
2018-06-13T11:05:43.419Z,19.58
2018-06-13T11:06:43.441Z,19.65
2018-06-13T11:07:43.478Z,19.79
2018-06-13T11:08:43.496Z,19.83
2018-06-13T11:09:43.519Z,19.71
2018-06-13T11:10:43.556Z,19.67
2018-06-13T11:11:43.587Z,19.68
2018-06-13T11:12:43.606Z,19.75
2018-06-13T11:13:43.632Z,19.83
2018-06-13T11:14:43.660Z,20.10
2018-06-13T11:15:43.696Z,20.23
2018-06-13T11:16:43.717Z,20.20
2018-06-13T11:17:43.747Z,20.41
2018-06-13T11:18:43.777Z,20.27
2018-06-13T11:19:43.801Z,20.26
2018-06-13T11:20:43.829Z,20.07
2018-06-13T11:21:43.857Z,20.12
2018-06-13T11:22:43.892Z,20.08
2018-06-13T11:23:43.914Z,20.02
2018-06-13T11:24:43.936Z,20.08
2018-06-13T11:25:43.966Z,20.10
2018-06-13T11:26:43.996Z,20.04
2018-06-13T11:27:44.021Z,20.23
2018-06-13T11:28:44.049Z,20.10
2018-06-13T11:29:44.075Z,19.87
2018-06-13T11:30:44.107Z,19.67
2018-06-13T11:31:44.135Z,19.72
2018-06-13T11:32:44.160Z,20.02
2018-06-13T11:33:44.190Z,20.19
2018-06-13T11:34:44.219Z,20.46
2018-06-13T11:35:44.249Z,20.94
2018-06-13T11:36:44.270Z,21.06
2018-06-13T11:37:44.304Z,21.31
2018-06-13T11:38:44.333Z,21.43
2018-06-13T11:39:44.361Z,21.16
2018-06-13T11:40:44.396Z,20.96
2018-06-13T11:41:44.415Z,20.50
2018-06-13T11:42:44.439Z,20.34
2018-06-13T11:43:44.471Z,19.98
2018-06-13T11:44:44.497Z,19.89
2018-06-13T11:45:44.525Z,19.76
2018-06-13T11:46:44.560Z,19.57
2018-06-13T11:47:44.587Z,19.38
2018-06-13T11:48:44.609Z,19.28
2018-06-13T11:49:44.640Z,19.09
2018-06-13T11:50:44.669Z,18.74
2018-06-13T11:51:44.697Z,18.56
2018-06-13T11:52:44.725Z,18.59
2018-06-13T11:53:44.753Z,18.41
2018-06-13T11:54:44.779Z,18.26
2018-06-13T11:55:44.807Z,18.21
2018-06-13T11:56:44.836Z,18.26
2018-06-13T11:57:44.862Z,18.29
2018-06-13T11:58:44.891Z,18.44
2018-06-13T11:59:44.930Z,18.59
2018-06-13T12:00:44.940Z,18.86
2018-06-13T12:01:44.997Z,19.09
2018-06-13T12:02:45.000Z,19.24
2018-06-13T12:03:45.029Z,19.30
2018-06-13T12:04:45.053Z,19.25
2018-06-13T12:05:45.088Z,19.25
2018-06-13T12:06:45.108Z,19.20
2018-06-13T12:07:45.140Z,19.23
2018-06-13T12:08:45.159Z,19.24
2018-06-13T12:09:45.190Z,19.10
2018-06-13T12:10:45.220Z,19.01
2018-06-13T12:11:45.245Z,18.86
2018-06-13T12:12:45.270Z,18.91
2018-06-13T12:13:45.298Z,18.94
2018-06-13T12:14:45.323Z,19.12
2018-06-13T12:15:45.356Z,19.10
2018-06-13T12:16:45.417Z,19.05
2018-06-13T12:17:45.414Z,19.10
2018-06-13T12:18:45.438Z,19.09
2018-06-13T12:19:45.458Z,19.09
2018-06-13T12:20:45.489Z,19.12
2018-06-13T12:21:45.521Z,19.10
2018-06-13T12:22:45.541Z,19.06
2018-06-13T12:23:45.578Z,19.05
2018-06-13T12:24:45.594Z,18.75
2018-06-13T12:25:45.625Z,18.56
2018-06-13T12:26:45.649Z,18.59
2018-06-13T12:27:45.677Z,18.36
2018-06-13T12:28:45.704Z,18.31
2018-06-13T12:29:45.738Z,18.16
2018-06-13T12:30:45.808Z,18.19
2018-06-13T12:31:45.791Z,18.16
2018-06-13T12:32:45.816Z,17.95
2018-06-13T12:33:45.842Z,18.09
2018-06-13T12:34:45.868Z,18.17
2018-06-13T12:35:45.897Z,18.23
2018-06-13T12:36:45.927Z,18.31
2018-06-13T12:37:45.951Z,18.31
2018-06-13T12:38:45.980Z,18.44
2018-06-13T12:39:46.003Z,18.51
2018-06-13T12:40:46.037Z,18.69
2018-06-13T12:41:46.057Z,18.72
2018-06-13T12:42:46.088Z,19.06
2018-06-13T12:43:46.112Z,19.28
2018-06-13T12:44:46.163Z,19.47
2018-06-13T12:45:46.168Z,19.65
2018-06-13T12:46:46.198Z,19.62
2018-06-13T12:47:46.223Z,19.64
2018-06-13T12:48:46.250Z,19.68
2018-06-13T12:49:46.275Z,19.60
2018-06-13T12:50:46.318Z,19.62
2018-06-13T12:51:46.342Z,19.79
2018-06-13T12:52:46.360Z,19.79